sensor_id;sensor_type;location;lat;lon;timestamp;temperature;humidity
5775;DHT22;2913;51.120;6.772;2022-11-20T00:02:13;5.00;99.90
5775;DHT22;2913;51.120;6.772;2022-11-20T00:04:38;5.00;99.90
5775;DHT22;2913;51.120;6.772;2022-11-20T00:07:04;4.90;99.90
5775;DHT22;2913;51.120;6.772;2022-11-20T00:09:30;4.90;99.90
5775;DHT22;2913;51.120;6.772;2022-11-20T00:11:58;4.80;99.90
5775;DHT22;2913;51.120;6.772;2022-11-20T00:14:23;4.80;99.90
5775;DHT22;2913;51.120;6.772;2022-11-20T00:16:54;4.80;99.90
5775;DHT22;2913;51.120;6.772;2022-11-20T00:19:22;4.90;99.90
5775;DHT22;2913;51.120;6.772;2022-11-20T00:21:47;4.90;99.90
5775;DHT22;2913;51.120;6.772;2022-11-20T00:24:19;5.00;99.90
5775;DHT22;2913;51.120;6.772;2022-11-20T00:26:44;5.00;99.90
5775;DHT22;2913;51.120;6.772;2022-11-20T00:29:10;4.90;99.90
5775;DHT22;2913;51.120;6.772;2022-11-20T00:31:36;5.00;99.90
5775;DHT22;2913;51.120;6.772;2022-11-20T00:34:02;4.90;99.90
5775;DHT22;2913;51.120;6.772;2022-11-20T00:36:31;4.90;99.90
5775;DHT22;2913;51.120;6.772;2022-11-20T00:39:01;4.90;99.90
5775;DHT22;2913;51.120;6.772;2022-11-20T00:41:31;4.80;99.90
5775;DHT22;2913;51.120;6.772;2022-11-20T00:43:57;4.80;99.90
5775;DHT22;2913;51.120;6.772;2022-11-20T00:46:26;4.80;99.90
5775;DHT22;2913;51.120;6.772;2022-11-20T00:48:52;4.80;99.90
5775;DHT22;2913;51.120;6.772;2022-11-20T00:51:20;4.80;99.90
5775;DHT22;2913;51.120;6.772;2022-11-20T00:53:46;4.80;99.90
5775;DHT22;2913;51.120;6.772;2022-11-20T00:56:18;4.80;99.90
5775;DHT22;2913;51.120;6.772;2022-11-20T00:58:47;4.80;99.90
5775;DHT22;2913;51.120;6.772;2022-11-20T01:01:16;4.70;99.90
5775;DHT22;2913;51.120;6.772;2022-11-20T01:03:49;4.70;99.90
5775;DHT22;2913;51.120;6.772;2022-11-20T01:06:18;4.80;99.90
5775;DHT22;2913;51.120;6.772;2022-11-20T01:08:46;4.80;99.90
5775;DHT22;2913;51.120;6.772;2022-11-20T01:11:15;4.90;99.90
5775;DHT22;2913;51.120;6.772;2022-11-20T01:13:42;4.90;99.90
5775;DHT22;2913;51.120;6.772;2022-11-20T01:16:11;4.80;99.90
5775;DHT22;2913;51.120;6.772;2022-11-20T01:18:39;4.80;99.90
5775;DHT22;2913;51.120;6.772;2022-11-20T01:21:07;4.80;99.90
5775;DHT22;2913;51.120;6.772;2022-11-20T01:23:40;4.90;99.90
5775;DHT22;2913;51.120;6.772;2022-11-20T01:26:14;4.90;99.90
5775;DHT22;2913;51.120;6.772;2022-11-20T01:28:40;4.90;99.90
5775;DHT22;2913;51.120;6.772;2022-11-20T01:31:17;4.90;99.90
5775;DHT22;2913;51.120;6.772;2022-11-20T01:33:47;5.00;99.90
5775;DHT22;2913;51.120;6.772;2022-11-20T01:36:17;5.00;99.90
5775;DHT22;2913;51.120;6.772;2022-11-20T01:38:44;5.00;99.90
5775;DHT22;2913;51.120;6.772;2022-11-20T01:41:11;5.10;99.90
5775;DHT22;2913;51.120;6.772;2022-11-20T01:43:58;5.10;99.90
5775;DHT22;2913;51.120;6.772;2022-11-20T01:46:23;5.10;99.90
5775;DHT22;2913;51.120;6.772;2022-11-20T01:49:02;5.20;99.90
5775;DHT22;2913;51.120;6.772;2022-11-20T01:51:33;5.20;99.90
5775;DHT22;2913;51.120;6.772;2022-11-20T01:54:03;5.10;99.90
5775;DHT22;2913;51.120;6.772;2022-11-20T01:56:37;5.10;99.90
5775;DHT22;2913;51.120;6.772;2022-11-20T01:59:06;5.20;99.90
5775;DHT22;2913;51.120;6.772;2022-11-20T02:01:38;5.00;99.90
5775;DHT22;2913;51.120;6.772;2022-11-20T02:04:05;4.80;99.90
5775;DHT22;2913;51.120;6.772;2022-11-20T02:09:04;4.80;99.90
5775;DHT22;2913;51.120;6.772;2022-11-20T02:11:31;4.70;99.90
5775;DHT22;2913;51.120;6.772;2022-11-20T02:13:59;4.70;99.90
5775;DHT22;2913;51.120;6.772;2022-11-20T02:16:39;4.70;99.90
5775;DHT22;2913;51.120;6.772;2022-11-20T02:19:09;4.60;99.90
5775;DHT22;2913;51.120;6.772;2022-11-20T02:22:13;4.60;99.90
5775;DHT22;2913;51.120;6.772;2022-11-20T02:24:44;4.50;99.90
5775;DHT22;2913;51.120;6.772;2022-11-20T02:27:14;4.50;99.90
5775;DHT22;2913;51.120;6.772;2022-11-20T02:29:57;4.50;99.90
5775;DHT22;2913;51.120;6.772;2022-11-20T02:32:27;4.50;99.90
5775;DHT22;2913;51.120;6.772;2022-11-20T02:34:53;4.40;99.90
5775;DHT22;2913;51.120;6.772;2022-11-20T02:37:19;4.40;99.90
5775;DHT22;2913;51.120;6.772;2022-11-20T02:39:47;4.30;99.90
5775;DHT22;2913;51.120;6.772;2022-11-20T02:42:13;4.30;99.90
5775;DHT22;2913;51.120;6.772;2022-11-20T02:44:39;4.30;99.90
5775;DHT22;2913;51.120;6.772;2022-11-20T02:47:07;4.30;99.90
5775;DHT22;2913;51.120;6.772;2022-11-20T02:49:32;4.40;99.90
5775;DHT22;2913;51.120;6.772;2022-11-20T02:51:58;4.30;99.90
5775;DHT22;2913;51.120;6.772;2022-11-20T02:54:24;4.30;99.90
5775;DHT22;2913;51.120;6.772;2022-11-20T02:56:50;4.40;99.90
5775;DHT22;2913;51.120;6.772;2022-11-20T02:59:15;4.40;99.90
5775;DHT22;2913;51.120;6.772;2022-11-20T03:01:41;4.40;99.90
5775;DHT22;2913;51.120;6.772;2022-11-20T03:04:07;4.40;99.90
5775;DHT22;2913;51.120;6.772;2022-11-20T03:06:32;4.40;99.90
5775;DHT22;2913;51.120;6.772;2022-11-20T03:09:00;4.50;99.90
5775;DHT22;2913;51.120;6.772;2022-11-20T03:11:26;4.50;99.90
5775;DHT22;2913;51.120;6.772;2022-11-20T03:13:54;4.50;99.90
5775;DHT22;2913;51.120;6.772;2022-11-20T03:16:25;4.60;99.90
5775;DHT22;2913;51.120;6.772;2022-11-20T03:18:52;4.60;99.90
5775;DHT22;2913;51.120;6.772;2022-11-20T03:21:18;4.60;99.90
5775;DHT22;2913;51.120;6.772;2022-11-20T03:23:46;4.60;99.90
5775;DHT22;2913;51.120;6.772;2022-11-20T03:26:21;4.60;99.90
5775;DHT22;2913;51.120;6.772;2022-11-20T03:28:51;4.60;99.90
5775;DHT22;2913;51.120;6.772;2022-11-20T03:31:22;4.60;99.90
5775;DHT22;2913;51.120;6.772;2022-11-20T03:33:49;4.60;99.90
5775;DHT22;2913;51.120;6.772;2022-11-20T03:36:16;4.60;99.90
5775;DHT22;2913;51.120;6.772;2022-11-20T03:38:42;4.60;99.90
5775;DHT22;2913;51.120;6.772;2022-11-20T03:41:17;4.60;99.90
5775;DHT22;2913;51.120;6.772;2022-11-20T03:43:56;4.60;99.90
5775;DHT22;2913;51.120;6.772;2022-11-20T03:46:22;4.60;99.90
5775;DHT22;2913;51.120;6.772;2022-11-20T03:48:48;4.60;99.90
5775;DHT22;2913;51.120;6.772;2022-11-20T03:53:45;4.60;99.90
5775;DHT22;2913;51.120;6.772;2022-11-20T03:56:12;4.60;99.90
5775;DHT22;2913;51.120;6.772;2022-11-20T03:58:39;4.60;99.90
5775;DHT22;2913;51.120;6.772;2022-11-20T04:03:36;4.60;99.90
5775;DHT22;2913;51.120;6.772;2022-11-20T04:06:14;4.60;99.90
5775;DHT22;2913;51.120;6.772;2022-11-20T04:08:43;4.60;99.90
5775;DHT22;2913;51.120;6.772;2022-11-20T04:11:18;4.70;99.90
5775;DHT22;2913;51.120;6.772;2022-11-20T04:13:52;4.70;99.90
5775;DHT22;2913;51.120;6.772;2022-11-20T04:16:18;4.70;99.90
5775;DHT22;2913;51.120;6.772;2022-11-20T04:18:45;4.60;99.90
5775;DHT22;2913;51.120;6.772;2022-11-20T04:21:13;4.60;99.90
5775;DHT22;2913;51.120;6.772;2022-11-20T04:23:39;4.60;99.90
5775;DHT22;2913;51.120;6.772;2022-11-20T04:26:07;4.60;99.90
5775;DHT22;2913;51.120;6.772;2022-11-20T04:28:33;4.60;99.90
5775;DHT22;2913;51.120;6.772;2022-11-20T04:31:03;4.60;99.90
5775;DHT22;2913;51.120;6.772;2022-11-20T04:33:29;4.60;99.90
5775;DHT22;2913;51.120;6.772;2022-11-20T04:35:55;4.70;99.90
5775;DHT22;2913;51.120;6.772;2022-11-20T04:38:24;4.70;99.90
5775;DHT22;2913;51.120;6.772;2022-11-20T04:40:56;4.80;99.90
5775;DHT22;2913;51.120;6.772;2022-11-20T04:43:24;4.80;99.90
5775;DHT22;2913;51.120;6.772;2022-11-20T04:45:52;4.80;99.90
5775;DHT22;2913;51.120;6.772;2022-11-20T04:48:20;4.80;99.90
5775;DHT22;2913;51.120;6.772;2022-11-20T04:50:45;4.80;99.90
5775;DHT22;2913;51.120;6.772;2022-11-20T04:53:14;4.70;99.90
5775;DHT22;2913;51.120;6.772;2022-11-20T04:55:39;4.70;99.90
5775;DHT22;2913;51.120;6.772;2022-11-20T04:58:05;4.70;99.90
5775;DHT22;2913;51.120;6.772;2022-11-20T05:00:31;4.70;99.90
5775;DHT22;2913;51.120;6.772;2022-11-20T05:02:56;4.70;99.90
5775;DHT22;2913;51.120;6.772;2022-11-20T05:05:22;4.70;99.90
5775;DHT22;2913;51.120;6.772;2022-11-20T05:07:53;4.70;99.90
5775;DHT22;2913;51.120;6.772;2022-11-20T05:10:23;4.70;99.90
5775;DHT22;2913;51.120;6.772;2022-11-20T05:12:49;4.70;99.90
5775;DHT22;2913;51.120;6.772;2022-11-20T05:15:14;4.70;99.90
5775;DHT22;2913;51.120;6.772;2022-11-20T05:17:40;4.70;99.90
5775;DHT22;2913;51.120;6.772;2022-11-20T05:20:06;4.70;99.90
5775;DHT22;2913;51.120;6.772;2022-11-20T05:22:34;4.70;99.90
5775;DHT22;2913;51.120;6.772;2022-11-20T05:25:00;4.70;99.90
5775;DHT22;2913;51.120;6.772;2022-11-20T05:27:28;4.60;99.90
5775;DHT22;2913;51.120;6.772;2022-11-20T05:29:53;4.30;99.90
5775;DHT22;2913;51.120;6.772;2022-11-20T05:32:19;4.20;99.90
5775;DHT22;2913;51.120;6.772;2022-11-20T05:34:47;4.30;99.90
5775;DHT22;2913;51.120;6.772;2022-11-20T05:37:15;4.30;99.90
5775;DHT22;2913;51.120;6.772;2022-11-20T05:39:42;4.30;99.90
5775;DHT22;2913;51.120;6.772;2022-11-20T05:42:08;4.30;99.90
5775;DHT22;2913;51.120;6.772;2022-11-20T05:44:52;4.30;99.90
5775;DHT22;2913;51.120;6.772;2022-11-20T05:47:20;4.40;99.90
5775;DHT22;2913;51.120;6.772;2022-11-20T05:49:46;4.40;99.90
5775;DHT22;2913;51.120;6.772;2022-11-20T05:52:11;4.40;99.90
5775;DHT22;2913;51.120;6.772;2022-11-20T05:54:39;4.30;99.90
5775;DHT22;2913;51.120;6.772;2022-11-20T05:57:07;4.20;99.90
5775;DHT22;2913;51.120;6.772;2022-11-20T05:59:33;4.30;99.90
5775;DHT22;2913;51.120;6.772;2022-11-20T06:02:01;4.20;99.90
5775;DHT22;2913;51.120;6.772;2022-11-20T06:04:26;4.20;99.90
5775;DHT22;2913;51.120;6.772;2022-11-20T06:06:54;4.20;99.90
5775;DHT22;2913;51.120;6.772;2022-11-20T06:09:20;4.20;99.90
5775;DHT22;2913;51.120;6.772;2022-11-20T06:11:45;4.00;99.90
5775;DHT22;2913;51.120;6.772;2022-11-20T06:14:11;4.00;99.90
5775;DHT22;2913;51.120;6.772;2022-11-20T06:16:37;3.80;99.90
5775;DHT22;2913;51.120;6.772;2022-11-20T06:19:02;3.80;99.90
5775;DHT22;2913;51.120;6.772;2022-11-20T06:21:33;3.70;99.90
5775;DHT22;2913;51.120;6.772;2022-11-20T06:24:03;3.70;99.90
5775;DHT22;2913;51.120;6.772;2022-11-20T06:26:32;3.60;99.90
5775;DHT22;2913;51.120;6.772;2022-11-20T06:28:58;3.50;99.90
5775;DHT22;2913;51.120;6.772;2022-11-20T06:31:28;3.50;99.90
5775;DHT22;2913;51.120;6.772;2022-11-20T06:33:54;3.50;99.90
5775;DHT22;2913;51.120;6.772;2022-11-20T06:36:22;3.50;99.90
5775;DHT22;2913;51.120;6.772;2022-11-20T06:38:52;3.50;99.90
5775;DHT22;2913;51.120;6.772;2022-11-20T06:41:23;3.50;99.90
5775;DHT22;2913;51.120;6.772;2022-11-20T06:43:49;3.40;99.90
5775;DHT22;2913;51.120;6.772;2022-11-20T06:46:15;3.40;99.90
5775;DHT22;2913;51.120;6.772;2022-11-20T06:48:46;3.30;99.90
5775;DHT22;2913;51.120;6.772;2022-11-20T06:51:11;3.30;99.90
5775;DHT22;2913;51.120;6.772;2022-11-20T06:53:37;3.30;99.90
5775;DHT22;2913;51.120;6.772;2022-11-20T06:56:03;3.20;99.90
5775;DHT22;2913;51.120;6.772;2022-11-20T06:58:31;3.30;99.90
5775;DHT22;2913;51.120;6.772;2022-11-20T07:01:02;3.30;99.90
5775;DHT22;2913;51.120;6.772;2022-11-20T07:03:28;3.30;99.90
5775;DHT22;2913;51.120;6.772;2022-11-20T07:05:58;3.30;99.90
5775;DHT22;2913;51.120;6.772;2022-11-20T07:08:28;3.40;99.90
5775;DHT22;2913;51.120;6.772;2022-11-20T07:11:01;3.40;99.90
5775;DHT22;2913;51.120;6.772;2022-11-20T07:13:30;3.40;99.90
5775;DHT22;2913;51.120;6.772;2022-11-20T07:16:00;3.30;99.90
5775;DHT22;2913;51.120;6.772;2022-11-20T07:18:28;3.30;99.90
5775;DHT22;2913;51.120;6.772;2022-11-20T07:20:59;3.30;99.90
5775;DHT22;2913;51.120;6.772;2022-11-20T07:23:27;3.40;99.90
5775;DHT22;2913;51.120;6.772;2022-11-20T07:25:52;3.40;99.90
5775;DHT22;2913;51.120;6.772;2022-11-20T07:28:20;3.50;99.90
5775;DHT22;2913;51.120;6.772;2022-11-20T07:30:50;3.50;99.90
5775;DHT22;2913;51.120;6.772;2022-11-20T07:33:16;3.60;99.90
5775;DHT22;2913;51.120;6.772;2022-11-20T07:35:42;3.60;99.90
5775;DHT22;2913;51.120;6.772;2022-11-20T07:38:07;3.60;99.90
5775;DHT22;2913;51.120;6.772;2022-11-20T07:40:33;3.60;99.90
5775;DHT22;2913;51.120;6.772;2022-11-20T07:42:59;3.70;99.90
5775;DHT22;2913;51.120;6.772;2022-11-20T07:45:27;3.70;99.90
5775;DHT22;2913;51.120;6.772;2022-11-20T07:47:52;3.70;99.90
5775;DHT22;2913;51.120;6.772;2022-11-20T07:50:19;3.60;99.90
5775;DHT22;2913;51.120;6.772;2022-11-20T07:52:44;3.70;99.90
5775;DHT22;2913;51.120;6.772;2022-11-20T07:55:10;3.80;99.90
5775;DHT22;2913;51.120;6.772;2022-11-20T07:57:36;3.80;99.90
5775;DHT22;2913;51.120;6.772;2022-11-20T08:00:05;3.90;99.90
5775;DHT22;2913;51.120;6.772;2022-11-20T08:02:40;3.90;99.90
5775;DHT22;2913;51.120;6.772;2022-11-20T08:05:10;4.00;99.90
5775;DHT22;2913;51.120;6.772;2022-11-20T08:07:43;4.00;99.90
5775;DHT22;2913;51.120;6.772;2022-11-20T08:10:12;4.10;99.90
5775;DHT22;2913;51.120;6.772;2022-11-20T08:12:51;4.20;99.90
5775;DHT22;2913;51.120;6.772;2022-11-20T08:15:37;4.20;99.90
5775;DHT22;2913;51.120;6.772;2022-11-20T08:18:11;4.30;99.90
5775;DHT22;2913;51.120;6.772;2022-11-20T08:20:37;4.30;99.90
5775;DHT22;2913;51.120;6.772;2022-11-20T08:23:05;4.40;99.90
5775;DHT22;2913;51.120;6.772;2022-11-20T08:25:35;4.50;99.90
5775;DHT22;2913;51.120;6.772;2022-11-20T08:28:06;4.50;99.90
5775;DHT22;2913;51.120;6.772;2022-11-20T08:30:35;4.50;99.90
5775;DHT22;2913;51.120;6.772;2022-11-20T08:33:06;4.60;99.90
5775;DHT22;2913;51.120;6.772;2022-11-20T08:35:34;4.60;99.90
5775;DHT22;2913;51.120;6.772;2022-11-20T08:38:04;4.70;99.90
5775;DHT22;2913;51.120;6.772;2022-11-20T08:40:30;4.70;99.90
5775;DHT22;2913;51.120;6.772;2022-11-20T08:42:58;4.80;99.90
5775;DHT22;2913;51.120;6.772;2022-11-20T08:45:24;4.90;99.90
5775;DHT22;2913;51.120;6.772;2022-11-20T08:47:49;5.00;99.90
5775;DHT22;2913;51.120;6.772;2022-11-20T08:50:16;5.00;99.90
5775;DHT22;2913;51.120;6.772;2022-11-20T08:52:43;5.00;99.90
5775;DHT22;2913;51.120;6.772;2022-11-20T08:55:09;5.10;99.90
5775;DHT22;2913;51.120;6.772;2022-11-20T08:57:36;5.10;99.90
5775;DHT22;2913;51.120;6.772;2022-11-20T09:00:05;5.10;99.90
5775;DHT22;2913;51.120;6.772;2022-11-20T09:02:31;5.20;99.90
5775;DHT22;2913;51.120;6.772;2022-11-20T09:04:58;5.10;99.90
5775;DHT22;2913;51.120;6.772;2022-11-20T09:07:23;5.20;99.90
5775;DHT22;2913;51.120;6.772;2022-11-20T09:09:51;5.20;99.90
5775;DHT22;2913;51.120;6.772;2022-11-20T09:12:17;5.20;99.90
5775;DHT22;2913;51.120;6.772;2022-11-20T09:14:47;5.30;99.90
5775;DHT22;2913;51.120;6.772;2022-11-20T09:17:15;5.20;99.90
5775;DHT22;2913;51.120;6.772;2022-11-20T09:19:40;5.30;99.90
5775;DHT22;2913;51.120;6.772;2022-11-20T09:22:08;5.20;99.90
5775;DHT22;2913;51.120;6.772;2022-11-20T09:24:34;5.10;99.90
5775;DHT22;2913;51.120;6.772;2022-11-20T09:27:03;5.20;99.90
5775;DHT22;2913;51.120;6.772;2022-11-20T09:29:31;5.10;99.90
5775;DHT22;2913;51.120;6.772;2022-11-20T09:31:59;5.10;99.90
5775;DHT22;2913;51.120;6.772;2022-11-20T09:34:25;5.10;99.90
5775;DHT22;2913;51.120;6.772;2022-11-20T09:36:51;5.10;99.90
5775;DHT22;2913;51.120;6.772;2022-11-20T09:39:16;5.10;99.90
5775;DHT22;2913;51.120;6.772;2022-11-20T09:47:11;5.10;99.90
5775;DHT22;2913;51.120;6.772;2022-11-20T09:49:46;5.10;99.90
5775;DHT22;2913;51.120;6.772;2022-11-20T09:52:53;5.20;99.90
5775;DHT22;2913;51.120;6.772;2022-11-20T09:55:18;5.20;99.90
5775;DHT22;2913;51.120;6.772;2022-11-20T09:57:46;5.30;99.90
5775;DHT22;2913;51.120;6.772;2022-11-20T10:00:15;5.40;99.90
5775;DHT22;2913;51.120;6.772;2022-11-20T10:05:23;5.40;99.90
5775;DHT22;2913;51.120;6.772;2022-11-20T10:13:08;5.60;99.90
5775;DHT22;2913;51.120;6.772;2022-11-20T10:15:46;5.50;99.90
5775;DHT22;2913;51.120;6.772;2022-11-20T10:31:30;5.40;99.90
5775;DHT22;2913;51.120;6.772;2022-11-20T10:34:01;5.30;99.90
5775;DHT22;2913;51.120;6.772;2022-11-20T10:36:36;5.40;99.90
5775;DHT22;2913;51.120;6.772;2022-11-20T10:42:12;5.60;99.90
5775;DHT22;2913;51.120;6.772;2022-11-20T10:44:40;5.70;99.90
5775;DHT22;2913;51.120;6.772;2022-11-20T10:47:30;5.70;99.90
5775;DHT22;2913;51.120;6.772;2022-11-20T10:50:03;5.60;99.90
5775;DHT22;2913;51.120;6.772;2022-11-20T10:55:25;5.70;99.90
5775;DHT22;2913;51.120;6.772;2022-11-20T10:58:16;5.80;99.90
5775;DHT22;2913;51.120;6.772;2022-11-20T11:00:47;5.70;99.90
5775;DHT22;2913;51.120;6.772;2022-11-20T11:03:27;5.80;99.90
5775;DHT22;2913;51.120;6.772;2022-11-20T11:06:03;5.80;99.90
5775;DHT22;2913;51.120;6.772;2022-11-20T11:08:39;5.90;99.90
5775;DHT22;2913;51.120;6.772;2022-11-20T11:11:20;5.90;99.90
5775;DHT22;2913;51.120;6.772;2022-11-20T11:13:47;5.90;99.90
5775;DHT22;2913;51.120;6.772;2022-11-20T11:16:26;6.00;99.90
5775;DHT22;2913;51.120;6.772;2022-11-20T11:19:06;6.10;99.90
5775;DHT22;2913;51.120;6.772;2022-11-20T11:21:38;6.00;99.90
5775;DHT22;2913;51.120;6.772;2022-11-20T11:24:15;6.10;99.90
5775;DHT22;2913;51.120;6.772;2022-11-20T11:27:03;6.20;99.90
5775;DHT22;2913;51.120;6.772;2022-11-20T11:29:33;6.10;99.90
5775;DHT22;2913;51.120;6.772;2022-11-20T11:34:32;6.00;99.90
5775;DHT22;2913;51.120;6.772;2022-11-20T11:36:58;6.20;99.90
5775;DHT22;2913;51.120;6.772;2022-11-20T11:39:25;6.20;99.90
5775;DHT22;2913;51.120;6.772;2022-11-20T11:41:54;6.20;99.90
5775;DHT22;2913;51.120;6.772;2022-11-20T11:44:27;6.30;99.90
5775;DHT22;2913;51.120;6.772;2022-11-20T11:47:47;6.30;99.90
5775;DHT22;2913;51.120;6.772;2022-11-20T12:00:58;6.30;99.90
5775;DHT22;2913;51.120;6.772;2022-11-20T12:03:34;6.30;99.90
5775;DHT22;2913;51.120;6.772;2022-11-20T12:06:14;6.30;99.90
5775;DHT22;2913;51.120;6.772;2022-11-20T12:08:56;6.30;99.90
5775;DHT22;2913;51.120;6.772;2022-11-20T12:11:24;6.20;99.90
5775;DHT22;2913;51.120;6.772;2022-11-20T12:14:00;6.20;99.90
5775;DHT22;2913;51.120;6.772;2022-11-20T12:16:32;6.20;99.90
5775;DHT22;2913;51.120;6.772;2022-11-20T12:19:07;6.30;99.90
5775;DHT22;2913;51.120;6.772;2022-11-20T12:22:01;6.40;99.90
5775;DHT22;2913;51.120;6.772;2022-11-20T12:38:26;6.10;99.90
5775;DHT22;2913;51.120;6.772;2022-11-20T12:43:48;6.20;99.90
5775;DHT22;2913;51.120;6.772;2022-11-20T12:52:24;6.10;99.90
5775;DHT22;2913;51.120;6.772;2022-11-20T13:00:20;6.20;99.90
5775;DHT22;2913;51.120;6.772;2022-11-20T13:03:16;6.20;99.90
5775;DHT22;2913;51.120;6.772;2022-11-20T13:05:58;6.10;99.90
5775;DHT22;2913;51.120;6.772;2022-11-20T13:08:36;6.10;99.90
5775;DHT22;2913;51.120;6.772;2022-11-20T13:13:53;6.20;99.90
5775;DHT22;2913;51.120;6.772;2022-11-20T13:17:00;6.10;99.90
5775;DHT22;2913;51.120;6.772;2022-11-20T13:19:30;6.30;99.90
5775;DHT22;2913;51.120;6.772;2022-11-20T13:21:58;6.30;99.90
5775;DHT22;2913;51.120;6.772;2022-11-20T13:24:26;6.30;99.90
5775;DHT22;2913;51.120;6.772;2022-11-20T13:29:37;6.40;99.90
5775;DHT22;2913;51.120;6.772;2022-11-20T13:32:16;6.40;99.90
5775;DHT22;2913;51.120;6.772;2022-11-20T13:35:22;6.40;99.90
5775;DHT22;2913;51.120;6.772;2022-11-20T13:38:02;6.40;99.90
5775;DHT22;2913;51.120;6.772;2022-11-20T13:40:28;6.40;99.90
5775;DHT22;2913;51.120;6.772;2022-11-20T13:45:32;6.30;99.90
5775;DHT22;2913;51.120;6.772;2022-11-20T13:48:03;6.30;99.90
5775;DHT22;2913;51.120;6.772;2022-11-20T13:53:33;6.50;99.90
5775;DHT22;2913;51.120;6.772;2022-11-20T13:56:28;6.50;99.90
5775;DHT22;2913;51.120;6.772;2022-11-20T14:01:56;6.60;99.90
5775;DHT22;2913;51.120;6.772;2022-11-20T14:04:30;6.50;99.90
5775;DHT22;2913;51.120;6.772;2022-11-20T14:07:05;6.60;99.90
5775;DHT22;2913;51.120;6.772;2022-11-20T14:09:32;6.60;99.90
5775;DHT22;2913;51.120;6.772;2022-11-20T14:12:18;6.60;99.90
5775;DHT22;2913;51.120;6.772;2022-11-20T14:14:49;6.60;99.90
5775;DHT22;2913;51.120;6.772;2022-11-20T14:17:21;6.60;99.90
5775;DHT22;2913;51.120;6.772;2022-11-20T14:19:49;6.60;99.90
5775;DHT22;2913;51.120;6.772;2022-11-20T14:22:23;6.60;99.90
5775;DHT22;2913;51.120;6.772;2022-11-20T14:25:18;6.60;99.90
5775;DHT22;2913;51.120;6.772;2022-11-20T14:27:53;6.60;99.90
5775;DHT22;2913;51.120;6.772;2022-11-20T14:30:25;6.60;99.90
5775;DHT22;2913;51.120;6.772;2022-11-20T14:32:54;6.60;99.90
5775;DHT22;2913;51.120;6.772;2022-11-20T14:35:25;6.50;99.90
5775;DHT22;2913;51.120;6.772;2022-11-20T14:37:51;6.40;99.90
5775;DHT22;2913;51.120;6.772;2022-11-20T14:40:27;6.50;99.90
5775;DHT22;2913;51.120;6.772;2022-11-20T14:42:56;6.50;99.90
5775;DHT22;2913;51.120;6.772;2022-11-20T14:45:26;6.50;99.90
5775;DHT22;2913;51.120;6.772;2022-11-20T14:47:56;6.50;99.90
5775;DHT22;2913;51.120;6.772;2022-11-20T14:50:27;6.50;99.90
5775;DHT22;2913;51.120;6.772;2022-11-20T14:58:00;6.50;99.90
5775;DHT22;2913;51.120;6.772;2022-11-20T15:00:27;6.50;99.90
5775;DHT22;2913;51.120;6.772;2022-11-20T15:02:53;6.50;99.90
5775;DHT22;2913;51.120;6.772;2022-11-20T15:05:21;6.50;99.90
5775;DHT22;2913;51.120;6.772;2022-11-20T15:08:03;6.50;99.90
5775;DHT22;2913;51.120;6.772;2022-11-20T15:10:29;6.50;99.90
5775;DHT22;2913;51.120;6.772;2022-11-20T15:13:01;6.40;99.90
5775;DHT22;2913;51.120;6.772;2022-11-20T15:15:51;6.60;99.90
5775;DHT22;2913;51.120;6.772;2022-11-20T15:18:36;6.50;99.90
5775;DHT22;2913;51.120;6.772;2022-11-20T15:21:06;6.50;99.90
5775;DHT22;2913;51.120;6.772;2022-11-20T15:23:35;6.50;99.90
5775;DHT22;2913;51.120;6.772;2022-11-20T15:26:00;6.40;99.90
5775;DHT22;2913;51.120;6.772;2022-11-20T15:28:36;6.30;99.90
5775;DHT22;2913;51.120;6.772;2022-11-20T15:31:03;6.30;99.90
5775;DHT22;2913;51.120;6.772;2022-11-20T15:33:30;6.30;99.90
5775;DHT22;2913;51.120;6.772;2022-11-20T15:35:56;6.30;99.90
5775;DHT22;2913;51.120;6.772;2022-11-20T15:38:22;6.20;99.90
5775;DHT22;2913;51.120;6.772;2022-11-20T15:40:48;6.20;99.90
5775;DHT22;2913;51.120;6.772;2022-11-20T15:43:13;6.10;99.90
5775;DHT22;2913;51.120;6.772;2022-11-20T15:48:16;6.10;99.90
5775;DHT22;2913;51.120;6.772;2022-11-20T15:51:02;6.10;99.90
5775;DHT22;2913;51.120;6.772;2022-11-20T15:53:29;6.10;99.90
5775;DHT22;2913;51.120;6.772;2022-11-20T15:55:54;6.10;99.90
5775;DHT22;2913;51.120;6.772;2022-11-20T15:58:20;6.10;99.90
5775;DHT22;2913;51.120;6.772;2022-11-20T16:00:49;6.10;99.90
5775;DHT22;2913;51.120;6.772;2022-11-20T16:03:16;6.00;99.90
5775;DHT22;2913;51.120;6.772;2022-11-20T16:05:42;6.00;99.90
5775;DHT22;2913;51.120;6.772;2022-11-20T16:08:08;6.10;99.90
5775;DHT22;2913;51.120;6.772;2022-11-20T16:10:34;6.10;99.90
5775;DHT22;2913;51.120;6.772;2022-11-20T16:13:00;6.10;99.90
5775;DHT22;2913;51.120;6.772;2022-11-20T16:15:53;6.10;99.90
5775;DHT22;2913;51.120;6.772;2022-11-20T16:18:21;6.10;99.90
5775;DHT22;2913;51.120;6.772;2022-11-20T16:20:51;6.10;99.90
5775;DHT22;2913;51.120;6.772;2022-11-20T16:23:17;6.10;99.90
5775;DHT22;2913;51.120;6.772;2022-11-20T16:25:46;6.20;99.90
5775;DHT22;2913;51.120;6.772;2022-11-20T16:28:12;6.20;99.90
5775;DHT22;2913;51.120;6.772;2022-11-20T16:30:39;6.30;99.90
5775;DHT22;2913;51.120;6.772;2022-11-20T16:33:12;6.30;99.90
5775;DHT22;2913;51.120;6.772;2022-11-20T16:35:41;6.40;99.90
5775;DHT22;2913;51.120;6.772;2022-11-20T16:38:09;6.40;99.90
5775;DHT22;2913;51.120;6.772;2022-11-20T16:40:35;6.50;99.90
5775;DHT22;2913;51.120;6.772;2022-11-20T16:43:13;6.40;99.90
5775;DHT22;2913;51.120;6.772;2022-11-20T16:45:43;6.40;99.90
5775;DHT22;2913;51.120;6.772;2022-11-20T16:48:13;6.40;99.90
5775;DHT22;2913;51.120;6.772;2022-11-20T16:50:49;6.40;99.90
5775;DHT22;2913;51.120;6.772;2022-11-20T16:53:17;6.40;99.90
5775;DHT22;2913;51.120;6.772;2022-11-20T16:55:43;6.40;99.90
5775;DHT22;2913;51.120;6.772;2022-11-20T16:58:08;6.40;99.90
5775;DHT22;2913;51.120;6.772;2022-11-20T17:00:38;6.40;99.90
5775;DHT22;2913;51.120;6.772;2022-11-20T17:03:05;6.40;99.90
5775;DHT22;2913;51.120;6.772;2022-11-20T17:05:33;6.30;99.90
5775;DHT22;2913;51.120;6.772;2022-11-20T17:07:59;6.30;99.90
5775;DHT22;2913;51.120;6.772;2022-11-20T17:10:25;6.30;99.90
5775;DHT22;2913;51.120;6.772;2022-11-20T17:12:51;6.30;99.90
5775;DHT22;2913;51.120;6.772;2022-11-20T17:15:16;6.40;99.90
5775;DHT22;2913;51.120;6.772;2022-11-20T17:17:42;6.40;99.90
5775;DHT22;2913;51.120;6.772;2022-11-20T17:20:10;6.40;99.90
5775;DHT22;2913;51.120;6.772;2022-11-20T17:22:39;6.40;99.90
5775;DHT22;2913;51.120;6.772;2022-11-20T17:25:04;6.40;99.90
5775;DHT22;2913;51.120;6.772;2022-11-20T17:27:30;6.40;99.90
5775;DHT22;2913;51.120;6.772;2022-11-20T17:29:56;6.40;99.90
5775;DHT22;2913;51.120;6.772;2022-11-20T17:32:23;6.50;99.90
5775;DHT22;2913;51.120;6.772;2022-11-20T17:34:49;6.50;99.90
5775;DHT22;2913;51.120;6.772;2022-11-20T17:37:15;6.50;99.90
5775;DHT22;2913;51.120;6.772;2022-11-20T17:39:40;6.50;99.90
5775;DHT22;2913;51.120;6.772;2022-11-20T17:42:08;6.50;99.90
5775;DHT22;2913;51.120;6.772;2022-11-20T17:44:56;6.60;99.90
5775;DHT22;2913;51.120;6.772;2022-11-20T17:47:24;6.60;99.90
5775;DHT22;2913;51.120;6.772;2022-11-20T17:49:52;6.60;99.90
5775;DHT22;2913;51.120;6.772;2022-11-20T17:52:22;6.70;99.90
5775;DHT22;2913;51.120;6.772;2022-11-20T17:54:47;6.70;99.90
5775;DHT22;2913;51.120;6.772;2022-11-20T17:57:13;6.70;99.90
5775;DHT22;2913;51.120;6.772;2022-11-20T17:59:57;6.70;99.90
5775;DHT22;2913;51.120;6.772;2022-11-20T18:02:23;6.70;99.90
5775;DHT22;2913;51.120;6.772;2022-11-20T18:04:50;6.80;99.90
5775;DHT22;2913;51.120;6.772;2022-11-20T18:07:18;6.90;99.90
5775;DHT22;2913;51.120;6.772;2022-11-20T18:09:43;6.80;99.90
5775;DHT22;2913;51.120;6.772;2022-11-20T18:12:09;6.90;99.90
5775;DHT22;2913;51.120;6.772;2022-11-20T18:14:35;6.90;99.90
5775;DHT22;2913;51.120;6.772;2022-11-20T18:17:11;7.00;99.90
5775;DHT22;2913;51.120;6.772;2022-11-20T18:19:44;7.00;99.90